sensor_id;sensor_type;location;lat;lon;timestamp;P1;durP1;ratioP1;P2;durP2;ratioP2
3407;SDS011;1717;50.240;8.406;2022-12-20T00:02:24;12.53;;;8.47;;
3407;SDS011;1717;50.240;8.406;2022-12-20T00:04:52;11.50;;;7.80;;
3407;SDS011;1717;50.240;8.406;2022-12-20T00:07:19;13.97;;;8.57;;
3407;SDS011;1717;50.240;8.406;2022-12-20T00:09:46;11.23;;;8.33;;
3407;SDS011;1717;50.240;8.406;2022-12-20T00:12:14;11.73;;;8.03;;
3407;SDS011;1717;50.240;8.406;2022-12-20T00:14:41;10.70;;;8.00;;
3407;SDS011;1717;50.240;8.406;2022-12-20T00:17:08;12.00;;;7.93;;
3407;SDS011;1717;50.240;8.406;2022-12-20T00:19:35;10.67;;;8.53;;
3407;SDS011;1717;50.240;8.406;2022-12-20T00:22:01;11.83;;;8.10;;
3407;SDS011;1717;50.240;8.406;2022-12-20T00:24:28;8.70;;;7.30;;
3407;SDS011;1717;50.240;8.406;2022-12-20T00:26:57;12.80;;;8.13;;
3407;SDS011;1717;50.240;8.406;2022-12-20T00:29:25;11.87;;;7.33;;
3407;SDS011;1717;50.240;8.406;2022-12-20T00:31:51;11.13;;;7.57;;
3407;SDS011;1717;50.240;8.406;2022-12-20T00:34:18;13.47;;;8.10;;
3407;SDS011;1717;50.240;8.406;2022-12-20T00:36:45;8.10;;;7.30;;
3407;SDS011;1717;50.240;8.406;2022-12-20T00:39:12;9.77;;;7.70;;
3407;SDS011;1717;50.240;8.406;2022-12-20T00:41:39;9.17;;;7.07;;
3407;SDS011;1717;50.240;8.406;2022-12-20T00:44:06;9.90;;;7.93;;
3407;SDS011;1717;50.240;8.406;2022-12-20T00:46:34;10.47;;;7.50;;
3407;SDS011;1717;50.240;8.406;2022-12-20T00:49:01;9.13;;;8.10;;
3407;SDS011;1717;50.240;8.406;2022-12-20T00:51:28;9.50;;;7.70;;
3407;SDS011;1717;50.240;8.406;2022-12-20T00:53:57;10.10;;;6.77;;
3407;SDS011;1717;50.240;8.406;2022-12-20T00:56:23;12.00;;;7.80;;
3407;SDS011;1717;50.240;8.406;2022-12-20T00:58:50;12.50;;;7.40;;
3407;SDS011;1717;50.240;8.406;2022-12-20T01:01:18;9.90;;;7.20;;
3407;SDS011;1717;50.240;8.406;2022-12-20T01:03:48;13.00;;;8.00;;
3407;SDS011;1717;50.240;8.406;2022-12-20T01:06:16;8.80;;;7.20;;
3407;SDS011;1717;50.240;8.406;2022-12-20T01:08:43;9.70;;;6.90;;
3407;SDS011;1717;50.240;8.406;2022-12-20T01:11:10;8.27;;;6.20;;
3407;SDS011;1717;50.240;8.406;2022-12-20T01:13:39;8.40;;;6.87;;
3407;SDS011;1717;50.240;8.406;2022-12-20T01:16:10;11.23;;;8.20;;
3407;SDS011;1717;50.240;8.406;2022-12-20T01:18:38;12.97;;;8.63;;
3407;SDS011;1717;50.240;8.406;2022-12-20T01:21:07;9.10;;;6.97;;
3407;SDS011;1717;50.240;8.406;2022-12-20T01:23:36;10.60;;;6.90;;
3407;SDS011;1717;50.240;8.406;2022-12-20T01:26:04;8.30;;;5.70;;
3407;SDS011;1717;50.240;8.406;2022-12-20T01:28:33;9.03;;;6.43;;
3407;SDS011;1717;50.240;8.406;2022-12-20T01:31:01;10.67;;;7.07;;
3407;SDS011;1717;50.240;8.406;2022-12-20T01:33:30;6.37;;;5.77;;
3407;SDS011;1717;50.240;8.406;2022-12-20T01:35:58;6.87;;;6.17;;
3407;SDS011;1717;50.240;8.406;2022-12-20T01:38:28;6.37;;;5.17;;
3407;SDS011;1717;50.240;8.406;2022-12-20T01:40:55;9.53;;;6.50;;
3407;SDS011;1717;50.240;8.406;2022-12-20T01:43:23;8.80;;;6.20;;
3407;SDS011;1717;50.240;8.406;2022-12-20T01:45:50;6.87;;;6.17;;
3407;SDS011;1717;50.240;8.406;2022-12-20T01:48:19;10.83;;;6.20;;
3407;SDS011;1717;50.240;8.406;2022-12-20T01:50:50;10.77;;;8.47;;
3407;SDS011;1717;50.240;8.406;2022-12-20T01:53:19;9.77;;;7.07;;
3407;SDS011;1717;50.240;8.406;2022-12-20T01:55:49;9.33;;;7.47;;
3407;SDS011;1717;50.240;8.406;2022-12-20T01:58:16;9.20;;;7.07;;
3407;SDS011;1717;50.240;8.406;2022-12-20T02:00:44;9.03;;;6.50;;
3407;SDS011;1717;50.240;8.406;2022-12-20T02:03:12;13.83;;;8.20;;
3407;SDS011;1717;50.240;8.406;2022-12-20T02:05:40;9.30;;;6.67;;
3407;SDS011;1717;50.240;8.406;2022-12-20T02:08:10;11.33;;;7.20;;
3407;SDS011;1717;50.240;8.406;2022-12-20T02:10:43;9.13;;;6.93;;
3407;SDS011;1717;50.240;8.406;2022-12-20T02:13:27;9.90;;;7.70;;
3407;SDS011;1717;50.240;8.406;2022-12-20T02:16:00;10.67;;;7.23;;
3407;SDS011;1717;50.240;8.406;2022-12-20T02:18:30;10.93;;;7.30;;
3407;SDS011;1717;50.240;8.406;2022-12-20T02:21:13;8.23;;;6.37;;
3407;SDS011;1717;50.240;8.406;2022-12-20T02:24:22;10.40;;;7.53;;
3407;SDS011;1717;50.240;8.406;2022-12-20T02:27:23;10.03;;;7.40;;
3407;SDS011;1717;50.240;8.406;2022-12-20T02:30:05;7.77;;;6.10;;
3407;SDS011;1717;50.240;8.406;2022-12-20T02:32:36;13.17;;;8.20;;
3407;SDS011;1717;50.240;8.406;2022-12-20T02:35:08;10.53;;;8.77;;
3407;SDS011;1717;50.240;8.406;2022-12-20T02:37:45;8.40;;;6.80;;
3407;SDS011;1717;50.240;8.406;2022-12-20T02:40:13;9.53;;;7.47;;
3407;SDS011;1717;50.240;8.406;2022-12-20T02:42:42;9.50;;;8.00;;
3407;SDS011;1717;50.240;8.406;2022-12-20T02:45:11;13.20;;;8.60;;
3407;SDS011;1717;50.240;8.406;2022-12-20T02:47:44;12.50;;;8.30;;
3407;SDS011;1717;50.240;8.406;2022-12-20T02:50:14;13.50;;;8.77;;
3407;SDS011;1717;50.240;8.406;2022-12-20T02:52:46;10.40;;;8.80;;
3407;SDS011;1717;50.240;8.406;2022-12-20T02:55:13;10.97;;;8.10;;
3407;SDS011;1717;50.240;8.406;2022-12-20T02:57:42;11.00;;;8.57;;
3407;SDS011;1717;50.240;8.406;2022-12-20T03:00:16;10.17;;;8.23;;
3407;SDS011;1717;50.240;8.406;2022-12-20T03:02:46;12.80;;;9.30;;
3407;SDS011;1717;50.240;8.406;2022-12-20T03:05:42;14.07;;;10.10;;
3407;SDS011;1717;50.240;8.406;2022-12-20T03:08:10;14.87;;;10.90;;
3407;SDS011;1717;50.240;8.406;2022-12-20T03:10:37;13.03;;;8.87;;
3407;SDS011;1717;50.240;8.406;2022-12-20T03:13:04;14.70;;;10.03;;
3407;SDS011;1717;50.240;8.406;2022-12-20T03:15:32;12.47;;;9.87;;
3407;SDS011;1717;50.240;8.406;2022-12-20T03:17:59;12.87;;;9.97;;
3407;SDS011;1717;50.240;8.406;2022-12-20T03:20:26;19.50;;;9.20;;
3407;SDS011;1717;50.240;8.406;2022-12-20T03:22:53;13.13;;;9.43;;
3407;SDS011;1717;50.240;8.406;2022-12-20T03:25:19;13.30;;;10.20;;
3407;SDS011;1717;50.240;8.406;2022-12-20T03:27:46;12.87;;;10.33;;
3407;SDS011;1717;50.240;8.406;2022-12-20T03:30:14;13.77;;;10.93;;
3407;SDS011;1717;50.240;8.406;2022-12-20T03:32:42;13.60;;;10.37;;
3407;SDS011;1717;50.240;8.406;2022-12-20T03:35:09;13.50;;;9.23;;
3407;SDS011;1717;50.240;8.406;2022-12-20T03:37:35;17.17;;;11.27;;
3407;SDS011;1717;50.240;8.406;2022-12-20T03:40:02;18.33;;;11.90;;
3407;SDS011;1717;50.240;8.406;2022-12-20T03:42:30;13.13;;;10.63;;
3407;SDS011;1717;50.240;8.406;2022-12-20T03:44:57;18.77;;;12.47;;
3407;SDS011;1717;50.240;8.406;2022-12-20T03:47:24;13.23;;;9.73;;
3407;SDS011;1717;50.240;8.406;2022-12-20T03:49:52;15.43;;;11.33;;
3407;SDS011;1717;50.240;8.406;2022-12-20T03:52:19;15.10;;;9.73;;
3407;SDS011;1717;50.240;8.406;2022-12-20T03:54:46;21.93;;;12.77;;
3407;SDS011;1717;50.240;8.406;2022-12-20T03:57:13;17.03;;;13.10;;
3407;SDS011;1717;50.240;8.406;2022-12-20T03:59:40;15.43;;;11.53;;
3407;SDS011;1717;50.240;8.406;2022-12-20T04:02:07;17.30;;;11.80;;
3407;SDS011;1717;50.240;8.406;2022-12-20T04:04:34;17.30;;;11.13;;
3407;SDS011;1717;50.240;8.406;2022-12-20T04:07:02;15.97;;;11.40;;
3407;SDS011;1717;50.240;8.406;2022-12-20T04:09:29;22.10;;;12.70;;
3407;SDS011;1717;50.240;8.406;2022-12-20T04:11:56;21.40;;;11.77;;
3407;SDS011;1717;50.240;8.406;2022-12-20T04:14:23;17.73;;;12.17;;
3407;SDS011;1717;50.240;8.406;2022-12-20T04:16:50;17.60;;;12.17;;
3407;SDS011;1717;50.240;8.406;2022-12-20T04:19:16;18.00;;;11.97;;
3407;SDS011;1717;50.240;8.406;2022-12-20T04:21:43;18.67;;;12.30;;
3407;SDS011;1717;50.240;8.406;2022-12-20T04:24:11;18.33;;;12.60;;
3407;SDS011;1717;50.240;8.406;2022-12-20T04:26:38;15.67;;;11.00;;
3407;SDS011;1717;50.240;8.406;2022-12-20T04:29:05;16.20;;;11.03;;
3407;SDS011;1717;50.240;8.406;2022-12-20T04:31:32;16.57;;;11.77;;
3407;SDS011;1717;50.240;8.406;2022-12-20T04:33:59;16.27;;;10.77;;
3407;SDS011;1717;50.240;8.406;2022-12-20T04:36:25;14.70;;;10.47;;
3407;SDS011;1717;50.240;8.406;2022-12-20T04:38:52;14.10;;;11.40;;
3407;SDS011;1717;50.240;8.406;2022-12-20T04:41:20;13.53;;;10.40;;
3407;SDS011;1717;50.240;8.406;2022-12-20T04:43:48;17.30;;;10.77;;
3407;SDS011;1717;50.240;8.406;2022-12-20T04:46:15;16.60;;;9.97;;
3407;SDS011;1717;50.240;8.406;2022-12-20T04:48:42;11.50;;;10.30;;
3407;SDS011;1717;50.240;8.406;2022-12-20T04:51:09;14.60;;;10.87;;
3407;SDS011;1717;50.240;8.406;2022-12-20T04:53:36;14.53;;;11.00;;
3407;SDS011;1717;50.240;8.406;2022-12-20T04:56:14;16.57;;;11.47;;
3407;SDS011;1717;50.240;8.406;2022-12-20T04:58:43;15.13;;;9.77;;
3407;SDS011;1717;50.240;8.406;2022-12-20T05:01:11;14.40;;;10.50;;
3407;SDS011;1717;50.240;8.406;2022-12-20T05:03:38;9.50;;;6.67;;
3407;SDS011;1717;50.240;8.406;2022-12-20T05:06:05;9.17;;;5.20;;
3407;SDS011;1717;50.240;8.406;2022-12-20T05:08:33;4.80;;;3.77;;
3407;SDS011;1717;50.240;8.406;2022-12-20T05:11:00;6.20;;;3.80;;
3407;SDS011;1717;50.240;8.406;2022-12-20T05:13:27;6.40;;;5.57;;
3407;SDS011;1717;50.240;8.406;2022-12-20T05:15:56;9.63;;;6.37;;
3407;SDS011;1717;50.240;8.406;2022-12-20T05:18:23;12.67;;;7.83;;
3407;SDS011;1717;50.240;8.406;2022-12-20T05:20:50;13.00;;;7.73;;
3407;SDS011;1717;50.240;8.406;2022-12-20T05:23:40;6.73;;;5.67;;
3407;SDS011;1717;50.240;8.406;2022-12-20T05:26:25;10.47;;;7.80;;
3407;SDS011;1717;50.240;8.406;2022-12-20T05:29:02;13.67;;;9.30;;
3407;SDS011;1717;50.240;8.406;2022-12-20T05:31:31;14.57;;;10.27;;
3407;SDS011;1717;50.240;8.406;2022-12-20T05:33:58;14.17;;;10.00;;
3407;SDS011;1717;50.240;8.406;2022-12-20T05:36:25;12.20;;;9.40;;
3407;SDS011;1717;50.240;8.406;2022-12-20T05:38:53;14.60;;;9.63;;
3407;SDS011;1717;50.240;8.406;2022-12-20T05:41:20;14.17;;;8.57;;
3407;SDS011;1717;50.240;8.406;2022-12-20T05:43:46;11.07;;;9.47;;
3407;SDS011;1717;50.240;8.406;2022-12-20T05:46:13;14.87;;;9.23;;
3407;SDS011;1717;50.240;8.406;2022-12-20T05:48:41;15.57;;;11.40;;
3407;SDS011;1717;50.240;8.406;2022-12-20T05:51:08;13.37;;;10.57;;
3407;SDS011;1717;50.240;8.406;2022-12-20T05:53:35;11.67;;;9.80;;
3407;SDS011;1717;50.240;8.406;2022-12-20T05:56:02;17.87;;;10.10;;
3407;SDS011;1717;50.240;8.406;2022-12-20T05:58:29;17.00;;;10.43;;
3407;SDS011;1717;50.240;8.406;2022-12-20T06:00:55;13.07;;;9.47;;
3407;SDS011;1717;50.240;8.406;2022-12-20T06:03:24;13.97;;;9.13;;
3407;SDS011;1717;50.240;8.406;2022-12-20T06:05:53;14.63;;;11.07;;
3407;SDS011;1717;50.240;8.406;2022-12-20T06:08:20;13.30;;;9.80;;
3407;SDS011;1717;50.240;8.406;2022-12-20T06:10:47;11.73;;;10.20;;
3407;SDS011;1717;50.240;8.406;2022-12-20T06:13:15;14.50;;;11.10;;
3407;SDS011;1717;50.240;8.406;2022-12-20T06:15:42;11.63;;;9.33;;
3407;SDS011;1717;50.240;8.406;2022-12-20T06:18:09;14.20;;;9.77;;
3407;SDS011;1717;50.240;8.406;2022-12-20T06:20:36;13.53;;;9.00;;
3407;SDS011;1717;50.240;8.406;2022-12-20T06:23:05;14.77;;;10.30;;
3407;SDS011;1717;50.240;8.406;2022-12-20T06:25:33;12.17;;;8.53;;
3407;SDS011;1717;50.240;8.406;2022-12-20T06:28:00;13.30;;;10.47;;
3407;SDS011;1717;50.240;8.406;2022-12-20T06:30:27;16.57;;;10.70;;
3407;SDS011;1717;50.240;8.406;2022-12-20T06:32:56;12.47;;;10.90;;
3407;SDS011;1717;50.240;8.406;2022-12-20T06:35:23;14.63;;;9.90;;
3407;SDS011;1717;50.240;8.406;2022-12-20T06:37:49;14.43;;;9.10;;
3407;SDS011;1717;50.240;8.406;2022-12-20T06:40:18;12.37;;;9.70;;
3407;SDS011;1717;50.240;8.406;2022-12-20T06:42:44;14.03;;;10.07;;
3407;SDS011;1717;50.240;8.406;2022-12-20T06:45:11;16.47;;;10.40;;
3407;SDS011;1717;50.240;8.406;2022-12-20T06:47:38;11.97;;;10.17;;
3407;SDS011;1717;50.240;8.406;2022-12-20T06:50:05;14.90;;;9.90;;
3407;SDS011;1717;50.240;8.406;2022-12-20T06:52:33;16.63;;;11.70;;
3407;SDS011;1717;50.240;8.406;2022-12-20T06:54:59;17.00;;;12.13;;
3407;SDS011;1717;50.240;8.406;2022-12-20T06:57:28;13.17;;;10.10;;
3407;SDS011;1717;50.240;8.406;2022-12-20T06:59:54;13.30;;;10.20;;
3407;SDS011;1717;50.240;8.406;2022-12-20T07:02:21;15.57;;;10.07;;
3407;SDS011;1717;50.240;8.406;2022-12-20T07:04:48;18.80;;;11.97;;
3407;SDS011;1717;50.240;8.406;2022-12-20T07:07:15;17.37;;;12.03;;
3407;SDS011;1717;50.240;8.406;2022-12-20T07:09:42;13.07;;;10.20;;
3407;SDS011;1717;50.240;8.406;2022-12-20T07:12:09;16.73;;;10.77;;
3407;SDS011;1717;50.240;8.406;2022-12-20T07:14:37;13.80;;;10.90;;
3407;SDS011;1717;50.240;8.406;2022-12-20T07:17:04;15.57;;;11.20;;
3407;SDS011;1717;50.240;8.406;2022-12-20T07:19:31;16.70;;;11.60;;
3407;SDS011;1717;50.240;8.406;2022-12-20T07:22:00;16.20;;;10.70;;
3407;SDS011;1717;50.240;8.406;2022-12-20T07:24:27;16.67;;;11.50;;
3407;SDS011;1717;50.240;8.406;2022-12-20T07:26:53;12.33;;;9.33;;
3407;SDS011;1717;50.240;8.406;2022-12-20T07:29:20;16.30;;;12.00;;
3407;SDS011;1717;50.240;8.406;2022-12-20T07:31:49;18.90;;;12.20;;
3407;SDS011;1717;50.240;8.406;2022-12-20T07:34:15;16.90;;;10.33;;
3407;SDS011;1717;50.240;8.406;2022-12-20T07:36:42;15.17;;;10.80;;
3407;SDS011;1717;50.240;8.406;2022-12-20T07:39:10;12.00;;;10.77;;
3407;SDS011;1717;50.240;8.406;2022-12-20T07:41:36;16.00;;;11.03;;
3407;SDS011;1717;50.240;8.406;2022-12-20T07:44:03;15.90;;;12.43;;
3407;SDS011;1717;50.240;8.406;2022-12-20T07:46:30;16.00;;;11.63;;
3407;SDS011;1717;50.240;8.406;2022-12-20T07:48:58;14.23;;;11.07;;
3407;SDS011;1717;50.240;8.406;2022-12-20T07:51:26;13.97;;;11.30;;
3407;SDS011;1717;50.240;8.406;2022-12-20T07:53:56;14.37;;;10.10;;
3407;SDS011;1717;50.240;8.406;2022-12-20T07:56:26;14.90;;;11.50;;
3407;SDS011;1717;50.240;8.406;2022-12-20T07:58:54;12.30;;;10.73;;
3407;SDS011;1717;50.240;8.406;2022-12-20T08:01:23;13.23;;;9.87;;
3407;SDS011;1717;50.240;8.406;2022-12-20T08:03:52;14.70;;;10.87;;
3407;SDS011;1717;50.240;8.406;2022-12-20T08:06:25;15.60;;;11.60;;
3407;SDS011;1717;50.240;8.406;2022-12-20T08:08:54;14.63;;;10.63;;
3407;SDS011;1717;50.240;8.406;2022-12-20T08:11:24;15.20;;;11.47;;
3407;SDS011;1717;50.240;8.406;2022-12-20T08:13:54;17.47;;;11.47;;
3407;SDS011;1717;50.240;8.406;2022-12-20T08:16:21;14.87;;;10.90;;
3407;SDS011;1717;50.240;8.406;2022-12-20T08:18:48;15.87;;;10.67;;
3407;SDS011;1717;50.240;8.406;2022-12-20T08:21:15;11.60;;;8.77;;
3407;SDS011;1717;50.240;8.406;2022-12-20T08:23:43;12.33;;;11.03;;
3407;SDS011;1717;50.240;8.406;2022-12-20T08:26:10;14.87;;;11.70;;
3407;SDS011;1717;50.240;8.406;2022-12-20T08:28:36;16.93;;;11.63;;
3407;SDS011;1717;50.240;8.406;2022-12-20T08:31:04;14.77;;;11.70;;
3407;SDS011;1717;50.240;8.406;2022-12-20T08:33:32;15.93;;;11.37;;
3407;SDS011;1717;50.240;8.406;2022-12-20T08:36:01;13.27;;;10.67;;
3407;SDS011;1717;50.240;8.406;2022-12-20T08:38:30;11.97;;;9.80;;
3407;SDS011;1717;50.240;8.406;2022-12-20T08:41:01;14.53;;;11.00;;
3407;SDS011;1717;50.240;8.406;2022-12-20T08:43:30;16.40;;;12.27;;
3407;SDS011;1717;50.240;8.406;2022-12-20T08:45:56;18.00;;;13.90;;
3407;SDS011;1717;50.240;8.406;2022-12-20T08:48:23;11.63;;;9.43;;
3407;SDS011;1717;50.240;8.406;2022-12-20T08:50:53;15.67;;;11.13;;
3407;SDS011;1717;50.240;8.406;2022-12-20T08:53:21;19.47;;;15.20;;
3407;SDS011;1717;50.240;8.406;2022-12-20T08:55:48;18.07;;;13.80;;
3407;SDS011;1717;50.240;8.406;2022-12-20T08:58:16;18.37;;;12.03;;
3407;SDS011;1717;50.240;8.406;2022-12-20T09:00:43;18.80;;;15.37;;
3407;SDS011;1717;50.240;8.406;2022-12-20T09:03:10;18.00;;;14.73;;
3407;SDS011;1717;50.240;8.406;2022-12-20T09:05:42;15.30;;;11.33;;
3407;SDS011;1717;50.240;8.406;2022-12-20T09:08:10;17.33;;;13.10;;
3407;SDS011;1717;50.240;8.406;2022-12-20T09:10:37;13.30;;;10.00;;
3407;SDS011;1717;50.240;8.406;2022-12-20T09:13:04;18.17;;;13.60;;
3407;SDS011;1717;50.240;8.406;2022-12-20T09:15:33;12.90;;;10.63;;
3407;SDS011;1717;50.240;8.406;2022-12-20T09:18:00;14.43;;;12.03;;
3407;SDS011;1717;50.240;8.406;2022-12-20T09:20:28;16.00;;;13.07;;
3407;SDS011;1717;50.240;8.406;2022-12-20T09:22:56;13.20;;;11.00;;
3407;SDS011;1717;50.240;8.406;2022-12-20T09:25:23;14.87;;;11.70;;
3407;SDS011;1717;50.240;8.406;2022-12-20T09:27:50;12.33;;;10.50;;
3407;SDS011;1717;50.240;8.406;2022-12-20T09:30:18;13.83;;;11.73;;
3407;SDS011;1717;50.240;8.406;2022-12-20T09:32:46;13.80;;;11.10;;
3407;SDS011;1717;50.240;8.406;2022-12-20T09:35:13;13.27;;;11.40;;
3407;SDS011;1717;50.240;8.406;2022-12-20T09:37:40;13.53;;;11.50;;
3407;SDS011;1717;50.240;8.406;2022-12-20T09:40:08;14.47;;;10.07;;
3407;SDS011;1717;50.240;8.406;2022-12-20T09:42:42;15.67;;;11.30;;
3407;SDS011;1717;50.240;8.406;2022-12-20T09:45:10;15.00;;;10.87;;
3407;SDS011;1717;50.240;8.406;2022-12-20T09:47:45;17.40;;;11.47;;
3407;SDS011;1717;50.240;8.406;2022-12-20T09:50:13;17.60;;;12.60;;
3407;SDS011;1717;50.240;8.406;2022-12-20T09:52:54;13.13;;;10.80;;
3407;SDS011;1717;50.240;8.406;2022-12-20T09:55:30;15.03;;;10.20;;
3407;SDS011;1717;50.240;8.406;2022-12-20T09:58:05;14.23;;;11.00;;
3407;SDS011;1717;50.240;8.406;2022-12-20T10:00:41;12.73;;;10.20;;
3407;SDS011;1717;50.240;8.406;2022-12-20T10:05:41;12.97;;;10.60;;
3407;SDS011;1717;50.240;8.406;2022-12-20T10:08:14;14.40;;;10.20;;
3407;SDS011;1717;50.240;8.406;2022-12-20T10:10:53;14.30;;;10.23;;
3407;SDS011;1717;50.240;8.406;2022-12-20T10:13:30;16.37;;;12.27;;
3407;SDS011;1717;50.240;8.406;2022-12-20T10:16:10;15.63;;;10.73;;
3407;SDS011;1717;50.240;8.406;2022-12-20T10:18:51;13.30;;;11.20;;
3407;SDS011;1717;50.240;8.406;2022-12-20T10:21:30;13.77;;;10.27;;
3407;SDS011;1717;50.240;8.406;2022-12-20T10:24:02;13.10;;;10.83;;
3407;SDS011;1717;50.240;8.406;2022-12-20T10:26:34;14.07;;;9.70;;
3407;SDS011;1717;50.240;8.406;2022-12-20T10:29:01;14.50;;;10.90;;
3407;SDS011;1717;50.240;8.406;2022-12-20T10:31:28;14.93;;;11.97;;
3407;SDS011;1717;50.240;8.406;2022-12-20T10:33:55;12.93;;;10.13;;
3407;SDS011;1717;50.240;8.406;2022-12-20T10:36:23;12.60;;;9.93;;
3407;SDS011;1717;50.240;8.406;2022-12-20T10:38:53;14.30;;;10.60;;
3407;SDS011;1717;50.240;8.406;2022-12-20T10:41:22;12.50;;;10.70;;
3407;SDS011;1717;50.240;8.406;2022-12-20T10:43:52;14.13;;;10.50;;
3407;SDS011;1717;50.240;8.406;2022-12-20T10:46:23;12.90;;;9.83;;
3407;SDS011;1717;50.240;8.406;2022-12-20T10:49:19;12.60;;;11.30;;
3407;SDS011;1717;50.240;8.406;2022-12-20T10:51:55;17.90;;;10.47;;
3407;SDS011;1717;50.240;8.406;2022-12-20T10:54:27;12.43;;;9.80;;
3407;SDS011;1717;50.240;8.406;2022-12-20T10:56:57;12.77;;;8.93;;
3407;SDS011;1717;50.240;8.406;2022-12-20T10:59:28;11.70;;;9.40;;
3407;SDS011;1717;50.240;8.406;2022-12-20T11:01:59;11.80;;;9.87;;
3407;SDS011;1717;50.240;8.406;2022-12-20T11:04:26;11.20;;;10.00;;
3407;SDS011;1717;50.240;8.406;2022-12-20T11:06:55;15.13;;;10.20;;
3407;SDS011;1717;50.240;8.406;2022-12-20T11:09:25;19.70;;;12.47;;
3407;SDS011;1717;50.240;8.406;2022-12-20T11:11:58;14.03;;;11.20;;
3407;SDS011;1717;50.240;8.406;2022-12-20T11:14:26;11.37;;;10.17;;
3407;SDS011;1717;50.240;8.406;2022-12-20T11:16:54;12.83;;;10.00;;
3407;SDS011;1717;50.240;8.406;2022-12-20T11:19:36;13.90;;;10.30;;
3407;SDS011;1717;50.240;8.406;2022-12-20T11:22:25;13.67;;;10.63;;
3407;SDS011;1717;50.240;8.406;2022-12-20T11:25:05;12.07;;;10.50;;
3407;SDS011;1717;50.240;8.406;2022-12-20T11:27:43;12.70;;;10.73;;
3407;SDS011;1717;50.240;8.406;2022-12-20T11:30:20;13.20;;;10.30;;
3407;SDS011;1717;50.240;8.406;2022-12-20T11:32:55;16.00;;;9.70;;
3407;SDS011;1717;50.240;8.406;2022-12-20T11:35:44;16.93;;;11.07;;
3407;SDS011;1717;50.240;8.406;2022-12-20T11:38:19;14.30;;;10.87;;
3407;SDS011;1717;50.240;8.406;2022-12-20T11:40:59;16.50;;;9.80;;
3407;SDS011;1717;50.240;8.406;2022-12-20T11:43:57;14.83;;;10.30;;
3407;SDS011;1717;50.240;8.406;2022-12-20T11:46:35;12.93;;;9.70;;
3407;SDS011;1717;50.240;8.406;2022-12-20T11:52:09;19.63;;;11.10;;
3407;SDS011;1717;50.240;8.406;2022-12-20T11:54:46;11.70;;;9.67;;
3407;SDS011;1717;50.240;8.406;2022-12-20T11:57:21;12.83;;;9.23;;
3407;SDS011;1717;50.240;8.406;2022-12-20T11:59:53;14.20;;;10.30;;
3407;SDS011;1717;50.240;8.406;2022-12-20T12:02:24;12.93;;;9.10;;
3407;SDS011;1717;50.240;8.406;2022-12-20T12:04:57;12.17;;;9.87;;
3407;SDS011;1717;50.240;8.406;2022-12-20T12:07:28;11.90;;;9.00;;
3407;SDS011;1717;50.240;8.406;2022-12-20T12:09:58;12.53;;;9.00;;
3407;SDS011;1717;50.240;8.406;2022-12-20T12:12:30;8.37;;;6.60;;
3407;SDS011;1717;50.240;8.406;2022-12-20T12:15:00;9.10;;;5.60;;
3407;SDS011;1717;50.240;8.406;2022-12-20T12:17:31;9.03;;;5.83;;
3407;SDS011;1717;50.240;8.406;2022-12-20T12:22:52;7.33;;;5.50;;
3407;SDS011;1717;50.240;8.406;2022-12-20T12:25:23;7.40;;;5.67;;
3407;SDS011;1717;50.240;8.406;2022-12-20T12:27:51;8.77;;;5.73;;
3407;SDS011;1717;50.240;8.406;2022-12-20T12:30:18;9.77;;;6.30;;
3407;SDS011;1717;50.240;8.406;2022-12-20T12:32:46;7.70;;;5.80;;
3407;SDS011;1717;50.240;8.406;2022-12-20T12:35:22;9.53;;;6.77;;
3407;SDS011;1717;50.240;8.406;2022-12-20T12:38:34;11.97;;;7.67;;
3407;SDS011;1717;50.240;8.406;2022-12-20T12:41:28;9.40;;;6.73;;
3407;SDS011;1717;50.240;8.406;2022-12-20T12:47:02;9.10;;;7.37;;
3407;SDS011;1717;50.240;8.406;2022-12-20T12:49:36;10.47;;;7.47;;
3407;SDS011;1717;50.240;8.406;2022-12-20T12:52:05;8.90;;;7.53;;
3407;SDS011;1717;50.240;8.406;2022-12-20T12:54:34;9.63;;;7.93;;
3407;SDS011;1717;50.240;8.406;2022-12-20T12:57:05;8.03;;;7.17;;
3407;SDS011;1717;50.240;8.406;2022-12-20T12:59:41;9.90;;;7.90;;
3407;SDS011;1717;50.240;8.406;2022-12-20T13:07:56;10.40;;;6.23;;
3407;SDS011;1717;50.240;8.406;2022-12-20T13:13:28;7.17;;;6.00;;
3407;SDS011;1717;50.240;8.406;2022-12-20T13:16:08;7.27;;;6.10;;
3407;SDS011;1717;50.240;8.406;2022-12-20T13:18:37;12.30;;;6.73;;
3407;SDS011;1717;50.240;8.406;2022-12-20T13:24:27;10.47;;;6.67;;
3407;SDS011;1717;50.240;8.406;2022-12-20T13:27:01;9.27;;;7.20;;
3407;SDS011;1717;50.240;8.406;2022-12-20T13:29:49;9.80;;;6.80;;
3407;SDS011;1717;50.240;8.406;2022-12-20T13:38:39;9.27;;;6.90;;
3407;SDS011;1717;50.240;8.406;2022-12-20T13:41:21;9.77;;;7.43;;
3407;SDS011;1717;50.240;8.406;2022-12-20T13:44:22;9.90;;;7.47;;
3407;SDS011;1717;50.240;8.406;2022-12-20T13:50:22;7.63;;;6.47;;
3407;SDS011;1717;50.240;8.406;2022-12-20T13:52:56;9.53;;;8.40;;
3407;SDS011;1717;50.240;8.406;2022-12-20T13:55:24;9.97;;;6.87;;
3407;SDS011;1717;50.240;8.406;2022-12-20T13:58:02;10.00;;;7.03;;
3407;SDS011;1717;50.240;8.406;2022-12-20T14:00:36;8.50;;;7.10;;
3407;SDS011;1717;50.240;8.406;2022-12-20T14:03:03;10.90;;;6.80;;
3407;SDS011;1717;50.240;8.406;2022-12-20T14:05:33;10.93;;;6.90;;
3407;SDS011;1717;50.240;8.406;2022-12-20T14:08:05;8.57;;;6.10;;
3407;SDS011;1717;50.240;8.406;2022-12-20T14:10:34;10.97;;;7.40;;
3407;SDS011;1717;50.240;8.406;2022-12-20T14:13:02;9.00;;;6.33;;
3407;SDS011;1717;50.240;8.406;2022-12-20T14:15:43;7.13;;;6.43;;
3407;SDS011;1717;50.240;8.406;2022-12-20T14:18:15;7.97;;;5.40;;
3407;SDS011;1717;50.240;8.406;2022-12-20T14:20:45;6.53;;;5.60;;
3407;SDS011;1717;50.240;8.406;2022-12-20T14:23:17;8.97;;;6.73;;
3407;SDS011;1717;50.240;8.406;2022-12-20T14:25:47;7.10;;;6.27;;
3407;SDS011;1717;50.240;8.406;2022-12-20T14:28:18;9.60;;;6.10;;
3407;SDS011;1717;50.240;8.406;2022-12-20T14:30:55;8.97;;;6.17;;
3407;SDS011;1717;50.240;8.406;2022-12-20T14:33:26;6.17;;;5.57;;
3407;SDS011;1717;50.240;8.406;2022-12-20T14:35:56;7.20;;;6.50;;
3407;SDS011;1717;50.240;8.406;2022-12-20T14:38:34;8.73;;;5.40;;
3407;SDS011;1717;50.240;8.406;2022-12-20T14:41:01;7.90;;;6.50;;
3407;SDS011;1717;50.240;8.406;2022-12-20T14:43:31;7.73;;;6.70;;
3407;SDS011;1717;50.240;8.406;2022-12-20T14:46:14;9.13;;;6.57;;
3407;SDS011;1717;50.240;8.406;2022-12-20T14:48:44;7.33;;;6.30;;
3407;SDS011;1717;50.240;8.406;2022-12-20T14:51:12;7.60;;;6.13;;
3407;SDS011;1717;50.240;8.406;2022-12-20T14:53:43;6.97;;;5.60;;
3407;SDS011;1717;50.240;8.406;2022-12-20T14:56:12;5.73;;;5.10;;
3407;SDS011;1717;50.240;8.406;2022-12-20T14:58:41;6.97;;;5.93;;
3407;SDS011;1717;50.240;8.406;2022-12-20T15:01:16;5.97;;;5.37;;
3407;SDS011;1717;50.240;8.406;2022-12-20T15:03:48;7.77;;;5.53;;
3407;SDS011;1717;50.240;8.406;2022-12-20T15:06:30;6.73;;;5.77;;
3407;SDS011;1717;50.240;8.406;2022-12-20T15:08:59;6.43;;;5.27;;
3407;SDS011;1717;50.240;8.406;2022-12-20T15:11:27;7.27;;;5.87;;
3407;SDS011;1717;50.240;8.406;2022-12-20T15:13:54;6.10;;;5.50;;
3407;SDS011;1717;50.240;8.406;2022-12-20T15:16:23;7.07;;;6.20;;
3407;SDS011;1717;50.240;8.406;2022-12-20T15:18:52;7.60;;;5.37;;
3407;SDS011;1717;50.240;8.406;2022-12-20T15:21:22;7.13;;;6.07;;
3407;SDS011;1717;50.240;8.406;2022-12-20T15:23:54;7.57;;;5.93;;
3407;SDS011;1717;50.240;8.406;2022-12-20T15:26:25;5.93;;;5.33;;
3407;SDS011;1717;50.240;8.406;2022-12-20T15:28:53;6.67;;;5.20;;
3407;SDS011;1717;50.240;8.406;2022-12-20T15:31:20;7.30;;;5.20;;
3407;SDS011;1717;50.240;8.406;2022-12-20T15:33:49;6.53;;;5.40;;
3407;SDS011;1717;50.240;8.406;2022-12-20T15:36:19;7.33;;;5.13;;
3407;SDS011;1717;50.240;8.406;2022-12-20T15:38:47;7.03;;;4.77;;
3407;SDS011;1717;50.240;8.406;2022-12-20T15:41:16;5.97;;;5.37;;
3407;SDS011;1717;50.240;8.406;2022-12-20T15:43:47;7.37;;;4.40;;
3407;SDS011;1717;50.240;8.406;2022-12-20T15:46:17;5.70;;;4.73;;
3407;SDS011;1717;50.240;8.406;2022-12-20T15:48:44;9.80;;;5.10;;
3407;SDS011;1717;50.240;8.406;2022-12-20T15:51:12;7.90;;;6.10;;
3407;SDS011;1717;50.240;8.406;2022-12-20T15:53:43;6.23;;;5.03;;